Terminal Aerodrome Forecast
Issued by NWS

Home | Current Version | Previous Version | Text Only | Print | Product List | Glossary On
Versions: 1 2 3 4 5 6 7 8 9 10 11 12 13 14 15 16 17 18 19 20 21 22 23 24 25 26
000
FTUS41 KBUF 061510 AAA
TAFJHW
TAF AMD
KJHW 061510Z 0615/0712 16006KT P6SM VCSH BKN080
     FM061800 15007KT 6SM -SHRA VCTS BKN040CB
     FM070000 17006KT 6SM -SHRA BKN045
     FM070200 17006KT P6SM BKN035
     FM070600 18006KT P6SM OVC060
      AMD LTD TO CLD VIS AND WIND=

USA.gov is the U.S. government's official web portal to all federal, state and local government web resources and services.